createdAt,value
2022-11-06T00:00:23.294Z,83.96
2022-11-06T00:02:51.273Z,84.20
2022-11-06T00:05:36.690Z,84.67
2022-11-06T00:08:06.256Z,84.53
2022-11-06T00:10:34.976Z,85.02
2022-11-06T00:13:03.151Z,84.67
2022-11-06T00:15:31.221Z,84.86
2022-11-06T00:17:59.077Z,84.59
2022-11-06T00:20:27.020Z,84.43
2022-11-06T00:22:55.144Z,84.14
2022-11-06T00:25:24.353Z,84.00
2022-11-06T00:27:52.251Z,83.97
2022-11-06T00:30:20.864Z,84.45
2022-11-06T00:32:48.981Z,84.42
2022-11-06T00:35:17.043Z,84.09
2022-11-06T00:37:45.094Z,84.32
2022-11-06T00:40:14.320Z,84.19
2022-11-06T00:42:43.724Z,84.37
2022-11-06T00:45:11.933Z,83.97
2022-11-06T00:47:39.946Z,84.12
2022-11-06T00:50:08.782Z,84.41
2022-11-06T00:52:36.719Z,84.05
2022-11-06T00:55:04.891Z,84.19
2022-11-06T00:57:33.421Z,84.18
2022-11-06T01:00:03.757Z,84.22
2022-11-06T01:02:31.781Z,84.21
2022-11-06T01:04:59.961Z,84.39
2022-11-06T01:07:28.270Z,84.61
2022-11-06T01:09:56.198Z,84.58
2022-11-06T01:12:24.070Z,84.93
2022-11-06T01:14:52.121Z,85.13
2022-11-06T01:17:21.424Z,84.71
2022-11-06T01:19:49.327Z,85.40
2022-11-06T01:22:17.798Z,86.17
2022-11-06T01:24:45.799Z,86.42
2022-11-06T01:27:26.436Z,86.68
2022-11-06T01:29:55.027Z,86.67
2022-11-06T01:32:24.348Z,86.56
2022-11-06T01:34:52.632Z,86.27
2022-11-06T01:37:20.566Z,86.84
2022-11-06T01:39:50.618Z,86.59
2022-11-06T01:42:21.444Z,86.89
2022-11-06T01:45:22.866Z,87.99
2022-11-06T01:47:52.605Z,86.79
2022-11-06T01:50:21.065Z,87.02
2022-11-06T01:52:52.042Z,87.44
2022-11-06T01:55:24.357Z,86.56
2022-11-06T01:57:53.121Z,86.89
2022-11-06T02:00:21.483Z,86.89
2022-11-06T02:02:51.662Z,86.75
2022-11-06T02:05:19.857Z,86.52
2022-11-06T02:07:48.085Z,86.95
2022-11-06T02:10:16.236Z,86.61
2022-11-06T02:12:53.545Z,86.63
2022-11-06T02:15:29.083Z,86.90
2022-11-06T02:18:08.941Z,86.96
2022-11-06T02:20:41.124Z,86.44
2022-11-06T02:23:31.889Z,87.14
2022-11-06T02:26:19.531Z,87.19
2022-11-06T02:28:54.511Z,87.00
2022-11-06T02:31:27.373Z,86.56
2022-11-06T02:34:00.823Z,86.78
2022-11-06T02:36:34.068Z,86.64
2022-11-06T02:39:05.801Z,86.85
2022-11-06T02:41:38.898Z,87.35
2022-11-06T02:44:13.126Z,87.49
2022-11-06T02:46:44.938Z,87.04
2022-11-06T02:49:16.397Z,87.07
2022-11-06T02:51:49.895Z,87.22
2022-11-06T02:54:21.274Z,87.17
2022-11-06T02:56:53.694Z,87.04
2022-11-06T02:59:27.910Z,86.92
2022-11-06T03:01:59.266Z,87.29
2022-11-06T03:04:33.154Z,86.71
2022-11-06T03:07:07.473Z,87.05
2022-11-06T03:09:36.399Z,87.36
2022-11-06T03:12:17.601Z,86.48
2022-11-06T03:14:54.907Z,86.83
2022-11-06T03:17:30.474Z,86.91
2022-11-06T03:20:05.092Z,86.75
2022-11-06T03:22:36.988Z,86.83
2022-11-06T03:25:16.013Z,86.90
2022-11-06T03:27:52.542Z,86.78
2022-11-06T03:30:22.286Z,86.49
2022-11-06T03:32:55.599Z,85.99
2022-11-06T03:35:27.756Z,86.35
2022-11-06T03:37:59.284Z,86.07
2022-11-06T03:40:31.089Z,86.28
2022-11-06T03:43:03.814Z,86.07
2022-11-06T03:45:35.088Z,85.81
2022-11-06T03:48:09.186Z,85.89
2022-11-06T03:50:42.022Z,85.72
2022-11-06T03:53:14.214Z,85.80
2022-11-06T03:55:46.549Z,85.31
2022-11-06T03:58:18.334Z,85.81
2022-11-06T04:00:48.668Z,85.93
2022-11-06T04:03:22.122Z,85.78
2022-11-06T04:05:56.051Z,85.85
2022-11-06T04:08:45.804Z,86.06
2022-11-06T04:11:36.277Z,86.20
2022-11-06T04:14:05.974Z,86.21
2022-11-06T04:16:39.665Z,86.46
2022-11-06T04:19:11.495Z,86.72
2022-11-06T04:21:49.609Z,86.34
2022-11-06T04:24:45.114Z,86.25
2022-11-06T04:27:24.944Z,86.90
2022-11-06T04:30:04.892Z,86.71
2022-11-06T04:32:49.188Z,87.09
2022-11-06T04:35:25.598Z,86.51
2022-11-06T04:37:59.340Z,87.28
2022-11-06T04:40:38.472Z,86.93
2022-11-06T04:43:13.392Z,87.05
2022-11-06T04:45:46.284Z,87.32
2022-11-06T04:48:17.075Z,87.20
2022-11-06T04:50:51.946Z,87.13
2022-11-06T04:53:21.219Z,87.39
2022-11-06T04:55:51.372Z,87.09
2022-11-06T04:58:19.768Z,87.25
2022-11-06T05:00:49.815Z,86.91
2022-11-06T05:03:19.880Z,87.39
2022-11-06T05:05:48.620Z,87.47
2022-11-06T05:08:18.735Z,87.57
2022-11-06T05:10:47.909Z,87.24
2022-11-06T05:13:16.966Z,87.66
2022-11-06T05:15:44.936Z,87.36
2022-11-06T05:18:13.447Z,87.11
2022-11-06T05:20:43.253Z,87.30
2022-11-06T05:23:10.162Z,87.16
2022-11-06T05:25:40.364Z,88.04
2022-11-06T05:28:09.948Z,87.62
2022-11-06T05:30:38.470Z,87.45
2022-11-06T05:33:06.595Z,87.55
2022-11-06T05:35:34.759Z,87.72
2022-11-06T05:38:04.780Z,87.45
2022-11-06T05:40:33.093Z,87.61
2022-11-06T05:43:02.607Z,87.59
2022-11-06T05:45:30.528Z,87.68
2022-11-06T05:47:58.726Z,87.83
2022-11-06T05:50:27.087Z,87.35
2022-11-06T05:52:55.131Z,87.82
2022-11-06T05:55:24.419Z,88.00
2022-11-06T05:57:52.325Z,88.23
2022-11-06T06:00:20.582Z,87.92
2022-11-06T06:02:48.612Z,87.95
2022-11-06T06:05:16.908Z,87.85
2022-11-06T06:07:45.028Z,87.86
2022-11-06T06:10:13.195Z,87.82
2022-11-06T06:12:42.697Z,88.06
2022-11-06T06:15:11.982Z,87.82
2022-11-06T06:17:39.986Z,87.51
2022-11-06T06:20:09.899Z,87.49
2022-11-06T06:22:37.777Z,87.77
2022-11-06T06:25:14.607Z,87.38
2022-11-06T06:27:46.899Z,87.02
2022-11-06T06:30:15.372Z,86.95
2022-11-06T06:32:43.547Z,87.02
2022-11-06T06:35:12.502Z,86.93
2022-11-06T06:37:40.576Z,87.38
2022-11-06T06:40:09.783Z,87.08
2022-11-06T06:42:37.697Z,87.06
2022-11-06T06:45:08.066Z,87.01
2022-11-06T06:47:35.896Z,87.19
2022-11-06T06:50:04.115Z,87.21
2022-11-06T06:52:32.033Z,87.33
2022-11-06T06:55:00.119Z,87.70
2022-11-06T06:57:28.057Z,87.49
2022-11-06T06:59:56.053Z,87.62
2022-11-06T07:02:25.449Z,87.87
2022-11-06T07:04:53.484Z,88.27
2022-11-06T07:07:21.312Z,88.08
2022-11-06T07:09:49.255Z,88.03
2022-11-06T07:12:17.438Z,87.74
2022-11-06T07:14:45.523Z,87.84
2022-11-06T07:17:13.769Z,88.24
2022-11-06T07:19:43.225Z,88.33
2022-11-06T07:22:11.502Z,87.92
2022-11-06T07:24:39.731Z,88.15
2022-11-06T07:27:07.943Z,88.36
2022-11-06T07:29:35.903Z,88.37
2022-11-06T07:32:04.366Z,87.73
2022-11-06T07:34:32.544Z,87.84
2022-11-06T07:37:07.372Z,87.31
2022-11-06T07:39:36.304Z,87.74
2022-11-06T07:42:04.612Z,87.28
2022-11-06T07:44:32.921Z,87.16
2022-11-06T07:47:01.022Z,87.19
2022-11-06T07:49:29.208Z,87.47
2022-11-06T07:51:57.486Z,87.74
2022-11-06T07:54:27.151Z,87.25
2022-11-06T07:56:55.562Z,87.59
2022-11-06T07:59:23.864Z,87.71
2022-11-06T08:01:52.318Z,87.35
2022-11-06T08:04:20.567Z,87.81
2022-11-06T08:06:48.750Z,87.80
2022-11-06T08:09:16.963Z,87.16
2022-11-06T08:11:46.652Z,87.92
2022-11-06T08:14:15.530Z,87.67
2022-11-06T08:16:43.888Z,87.61
2022-11-06T08:19:12.265Z,87.86
2022-11-06T08:21:40.410Z,87.56
2022-11-06T08:24:08.976Z,87.34
2022-11-06T08:26:37.235Z,87.91
2022-11-06T08:29:06.540Z,87.74
2022-11-06T08:31:34.915Z,87.48
2022-11-06T08:34:02.883Z,87.89
2022-11-06T08:36:31.057Z,87.54
2022-11-06T08:38:59.567Z,87.35
2022-11-06T08:41:27.822Z,87.31
2022-11-06T08:43:55.993Z,87.42
2022-11-06T08:46:25.754Z,87.15
2022-11-06T08:48:53.843Z,86.97
2022-11-06T08:51:21.882Z,87.21
2022-11-06T08:53:50.440Z,86.92
2022-11-06T08:56:18.731Z,87.08
2022-11-06T08:58:49.122Z,86.57
2022-11-06T09:01:21.127Z,86.36
2022-11-06T09:03:50.831Z,86.52
2022-11-06T09:06:19.114Z,85.69
2022-11-06T09:08:47.244Z,85.90
2022-11-06T09:11:15.459Z,85.82
2022-11-06T09:13:43.696Z,86.13
2022-11-06T09:16:15.872Z,85.17
2022-11-06T09:18:45.606Z,85.22
2022-11-06T09:21:15.141Z,85.21
2022-11-06T09:23:44.706Z,85.29
2022-11-06T09:26:13.511Z,85.06
2022-11-06T09:28:41.426Z,84.90
2022-11-06T09:31:10.522Z,85.17
2022-11-06T09:33:38.826Z,85.33
2022-11-06T09:36:09.392Z,84.09
2022-11-06T09:38:38.750Z,83.94
2022-11-06T09:41:07.751Z,83.71
2022-11-06T09:44:05.573Z,84.11
2022-11-06T09:46:37.866Z,82.69
2022-11-06T09:49:18.513Z,82.96
2022-11-06T09:51:54.481Z,82.75
2022-11-06T09:54:29.942Z,82.35
2022-11-06T09:57:04.564Z,83.63
2022-11-06T09:59:37.295Z,82.61
2022-11-06T10:02:23.163Z,82.24
2022-11-06T10:04:57.401Z,82.92
2022-11-06T10:07:30.482Z,82.96
2022-11-06T10:10:01.380Z,83.27
2022-11-06T10:12:42.126Z,82.78
2022-11-06T10:15:23.480Z,82.55
2022-11-06T10:18:00.821Z,82.34
2022-11-06T10:20:33.527Z,83.18
2022-11-06T10:23:07.341Z,82.70
2022-11-06T10:25:46.490Z,81.89
2022-11-06T10:28:27.531Z,82.18
2022-11-06T10:31:04.986Z,82.05
2022-11-06T10:33:46.939Z,81.42
2022-11-06T10:36:20.408Z,80.82
2022-11-06T10:38:50.382Z,81.49
2022-11-06T10:41:22.906Z,81.87
2022-11-06T10:43:54.211Z,81.64
2022-11-06T10:46:29.575Z,81.97
2022-11-06T10:49:01.411Z,81.68
2022-11-06T10:51:46.006Z,80.73
2022-11-06T10:54:29.119Z,80.11
2022-11-06T10:57:17.924Z,80.43
2022-11-06T10:59:46.450Z,80.48
2022-11-06T11:02:25.981Z,79.30
2022-11-06T11:04:58.022Z,80.33
2022-11-06T11:07:28.011Z,80.14
2022-11-06T11:10:06.367Z,79.91
2022-11-06T11:12:36.391Z,80.56
2022-11-06T11:15:15.381Z,80.24
2022-11-06T11:23:19.375Z,80.43
2022-11-06T11:25:49.395Z,80.15
2022-11-06T11:28:30.953Z,79.73
2022-11-06T11:31:07.596Z,79.75
2022-11-06T11:33:36.476Z,80.37
2022-11-06T11:36:06.789Z,78.91
2022-11-06T11:38:37.227Z,78.56
2022-11-06T11:41:10.696Z,77.81
2022-11-06T11:43:40.863Z,77.66
2022-11-06T11:46:21.024Z,77.65
2022-11-06T11:48:51.587Z,76.88
2022-11-06T11:51:32.259Z,76.50
2022-11-06T11:54:06.148Z,76.79
2022-11-06T11:57:02.854Z,76.87
2022-11-06T11:59:28.111Z,76.12
2022-11-06T12:01:59.023Z,75.13
2022-11-06T12:04:31.113Z,75.50
2022-11-06T12:07:01.777Z,75.11
2022-11-06T12:09:33.158Z,75.20
2022-11-06T12:12:02.681Z,75.79
2022-11-06T12:14:37.433Z,75.44
2022-11-06T12:17:14.697Z,75.46
2022-11-06T12:19:47.913Z,76.08
2022-11-06T12:22:21.449Z,75.46
2022-11-06T12:24:54.989Z,74.87
2022-11-06T12:27:27.442Z,75.48
2022-11-06T12:30:04.426Z,74.65
2022-11-06T12:32:47.320Z,73.83
2022-11-06T12:35:23.605Z,74.59
2022-11-06T12:38:05.802Z,74.73
2022-11-06T12:40:39.079Z,75.29
2022-11-06T12:43:17.145Z,74.34
2022-11-06T12:46:00.644Z,74.82
2022-11-06T12:48:50.154Z,73.64
2022-11-06T12:51:28.569Z,74.46
2022-11-06T12:54:09.140Z,73.84
2022-11-06T12:56:46.418Z,74.04
2022-11-06T12:59:33.225Z,74.04
2022-11-06T13:02:22.230Z,73.58
2022-11-06T13:04:57.029Z,73.90
2022-11-06T13:07:55.769Z,73.54
2022-11-06T13:10:34.870Z,73.89
2022-11-06T13:13:19.804Z,73.48
2022-11-06T13:15:52.863Z,73.90
2022-11-06T13:18:26.622Z,72.99
2022-11-06T13:20:59.526Z,74.44
2022-11-06T13:23:30.900Z,75.07
2022-11-06T13:26:08.078Z,73.71
2022-11-06T13:28:41.576Z,74.89
2022-11-06T13:31:14.356Z,74.49
2022-11-06T13:33:49.308Z,74.10
2022-11-06T13:36:18.145Z,73.89
2022-11-06T13:38:52.574Z,74.10
2022-11-06T13:41:23.383Z,73.39
2022-11-06T13:43:57.809Z,73.61
2022-11-06T13:46:31.118Z,73.86
2022-11-06T13:49:14.798Z,73.81
2022-11-06T13:51:51.385Z,74.06
2022-11-06T13:54:28.161Z,73.94
2022-11-06T13:57:14.472Z,72.56
2022-11-06T13:59:53.871Z,73.26
2022-11-06T14:02:49.349Z,73.05
2022-11-06T14:05:47.472Z,72.43
2022-11-06T14:08:19.083Z,72.67
2022-11-06T14:10:52.794Z,73.34
2022-11-06T14:13:25.474Z,72.88
2022-11-06T14:16:01.514Z,72.43
2022-11-06T14:18:29.518Z,72.63
2022-11-06T14:21:29.941Z,71.10
2022-11-06T14:24:07.228Z,71.85
2022-11-06T14:26:40.177Z,72.04
2022-11-06T14:29:56.664Z,71.93
2022-11-06T14:32:37.371Z,71.17
2022-11-06T14:35:48.752Z,71.50
2022-11-06T14:38:46.160Z,70.99
2022-11-06T14:41:48.000Z,71.32
2022-11-06T14:44:45.208Z,71.06
2022-11-06T14:47:35.881Z,70.12
2022-11-06T14:50:08.634Z,71.00
2022-11-06T14:52:46.507Z,71.33
2022-11-06T14:55:29.848Z,69.92
2022-11-06T14:58:01.704Z,70.98
2022-11-06T15:00:45.623Z,70.08
2022-11-06T15:03:29.200Z,70.21
2022-11-06T15:06:02.429Z,69.19
2022-11-06T15:09:09.928Z,70.37
2022-11-06T15:12:03.387Z,70.10
2022-11-06T15:15:07.818Z,70.64
2022-11-06T15:17:36.954Z,71.30
2022-11-06T15:20:25.889Z,71.00
2022-11-06T15:23:05.444Z,70.04
2022-11-06T15:25:36.228Z,71.32
2022-11-06T15:28:12.121Z,71.09
2022-11-06T15:30:46.266Z,70.06
2022-11-06T15:33:18.617Z,71.25
2022-11-06T15:35:49.603Z,71.80
2022-11-06T15:38:21.284Z,72.82
2022-11-06T15:40:52.650Z,72.74
2022-11-06T15:43:29.446Z,73.61
2022-11-06T15:46:09.034Z,74.25
2022-11-06T15:48:37.036Z,76.02
2022-11-06T15:51:06.161Z,75.83
2022-11-06T15:53:40.662Z,76.78
2022-11-06T15:56:10.700Z,77.26
2022-11-06T15:58:40.410Z,78.01
2022-11-06T16:01:12.463Z,78.59
2022-11-06T16:03:49.702Z,78.90
2022-11-06T16:06:18.697Z,79.62
2022-11-06T16:08:47.262Z,80.50
2022-11-06T16:11:19.117Z,80.04
2022-11-06T16:13:49.100Z,80.93
2022-11-06T16:16:35.846Z,81.44
2022-11-06T16:19:05.826Z,81.19
2022-11-06T16:21:36.501Z,81.08
2022-11-06T16:24:11.313Z,81.79
2022-11-06T16:26:46.650Z,81.85
2022-11-06T16:29:25.038Z,81.90
2022-11-06T16:32:01.457Z,81.71
2022-11-06T16:34:44.135Z,81.53
2022-11-06T16:37:48.703Z,81.40
2022-11-06T16:40:49.977Z,81.18
2022-11-06T16:43:20.520Z,81.24
2022-11-06T16:45:59.231Z,80.78
2022-11-06T16:48:36.077Z,80.99
2022-11-06T16:51:07.278Z,80.56
2022-11-06T16:53:56.131Z,80.64
2022-11-06T16:56:26.479Z,80.47
2022-11-06T16:58:59.242Z,81.00
2022-11-06T17:01:30.796Z,80.58
2022-11-06T17:04:02.532Z,80.63
2022-11-06T17:06:32.709Z,80.29
2022-11-06T17:09:09.918Z,79.91
2022-11-06T17:11:38.758Z,80.21
2022-11-06T17:14:18.701Z,80.02
2022-11-06T17:16:50.870Z,79.72
2022-11-06T17:19:19.434Z,79.94
2022-11-06T17:21:47.838Z,79.65
2022-11-06T17:24:36.013Z,79.95
2022-11-06T17:27:03.737Z,79.66
2022-11-06T17:29:33.563Z,79.79
2022-11-06T17:32:03.199Z,79.63
2022-11-06T17:34:30.993Z,80.19
2022-11-06T17:36:59.019Z,79.97
2022-11-06T17:39:26.950Z,79.97
2022-11-06T17:41:55.238Z,79.80
2022-11-06T17:44:23.710Z,79.79
2022-11-06T17:46:51.969Z,79.84
2022-11-06T17:49:21.124Z,79.53
2022-11-06T17:51:53.509Z,79.80
2022-11-06T17:54:23.518Z,79.63
2022-11-06T17:56:53.554Z,79.83
2022-11-06T17:59:23.929Z,79.28
2022-11-06T18:01:52.580Z,79.18
2022-11-06T18:04:24.698Z,78.48
2022-11-06T18:06:53.599Z,78.78
2022-11-06T18:09:22.589Z,78.98
2022-11-06T18:11:51.153Z,78.61
2022-11-06T18:14:19.047Z,79.22
2022-11-06T18:16:47.321Z,78.88
2022-11-06T18:19:17.828Z,78.99
2022-11-06T18:21:47.364Z,79.17
2022-11-06T18:24:16.153Z,78.76
2022-11-06T18:26:44.007Z,79.22
2022-11-06T18:29:13.696Z,78.77
2022-11-06T18:31:41.631Z,78.85
2022-11-06T18:34:18.379Z,79.14
2022-11-06T18:36:50.318Z,79.07
2022-11-06T18:39:18.849Z,78.98
2022-11-06T18:41:46.783Z,79.03
2022-11-06T18:44:16.212Z,78.92
2022-11-06T18:46:44.025Z,78.76
2022-11-06T18:49:12.769Z,79.10
2022-11-06T18:51:41.435Z,79.48
2022-11-06T18:54:12.788Z,78.37
2022-11-06T18:56:40.636Z,78.73
2022-11-06T18:59:11.138Z,78.24
2022-11-06T19:01:39.136Z,78.77
2022-11-06T19:04:08.492Z,78.86
2022-11-06T19:06:37.914Z,79.27
2022-11-06T19:09:06.351Z,79.28
2022-11-06T19:11:36.063Z,79.36
2022-11-06T19:14:04.231Z,78.96
2022-11-06T19:16:32.145Z,79.40
2022-11-06T19:21:35.971Z,79.38
2022-11-06T19:24:06.349Z,79.21
2022-11-06T19:26:37.165Z,79.36
2022-11-06T19:29:07.527Z,79.33
2022-11-06T19:31:37.174Z,78.92
2022-11-06T19:34:07.017Z,79.39
2022-11-06T19:36:35.591Z,79.53
2022-11-06T19:39:03.645Z,79.70
2022-11-06T19:41:31.621Z,79.57
2022-11-06T19:44:00.942Z,79.32
2022-11-06T19:46:35.111Z,79.26
2022-11-06T19:49:04.271Z,79.23
2022-11-06T19:51:33.343Z,79.05
2022-11-06T19:54:01.480Z,78.58
2022-11-06T19:56:29.607Z,78.83
2022-11-06T19:58:57.647Z,78.81
2022-11-06T20:01:27.074Z,79.12
2022-11-06T20:03:55.150Z,79.01
2022-11-06T20:06:23.059Z,79.29
2022-11-06T20:08:51.331Z,79.16
2022-11-06T20:11:19.386Z,78.49
2022-11-06T20:13:48.049Z,79.17
2022-11-06T20:16:18.236Z,79.06
2022-11-06T20:18:52.057Z,78.84
2022-11-06T20:21:21.108Z,78.82
2022-11-06T20:23:49.129Z,78.71
2022-11-06T20:26:17.368Z,79.10
2022-11-06T20:28:46.952Z,79.22
2022-11-06T20:31:16.272Z,78.88
2022-11-06T20:33:44.146Z,79.63
2022-11-06T20:36:17.074Z,79.30
2022-11-06T20:38:45.971Z,79.73
2022-11-06T20:41:14.568Z,80.08
2022-11-06T20:43:43.915Z,80.26
2022-11-06T20:46:13.723Z,80.25
2022-11-06T20:48:43.169Z,80.66
2022-11-06T20:51:15.946Z,80.32
2022-11-06T20:53:44.210Z,80.66
2022-11-06T20:56:13.956Z,80.92
2022-11-06T20:58:42.143Z,80.97
2022-11-06T21:01:12.327Z,81.16
2022-11-06T21:03:41.317Z,81.63
2022-11-06T21:06:10.219Z,81.92
2022-11-06T21:08:41.208Z,81.55
2022-11-06T21:11:12.746Z,81.91
2022-11-06T21:13:42.378Z,82.41
2022-11-06T21:16:14.247Z,82.62
2022-11-06T21:18:42.988Z,82.47
2022-11-06T21:21:13.865Z,82.54
2022-11-06T21:23:43.431Z,82.66
2022-11-06T21:26:14.702Z,83.09
2022-11-06T21:28:44.722Z,84.16
2022-11-06T21:31:14.684Z,84.31
2022-11-06T21:33:43.252Z,83.90
2022-11-06T21:36:12.806Z,84.44
2022-11-06T21:38:41.112Z,85.26
2022-11-06T21:41:12.391Z,85.09
2022-11-06T21:43:43.249Z,85.52
2022-11-06T21:46:13.596Z,87.30
2022-11-06T21:48:47.225Z,86.99
2022-11-06T21:51:19.802Z,86.42
2022-11-06T21:54:05.793Z,86.83
2022-11-06T21:56:36.124Z,87.50
2022-11-06T21:59:05.560Z,87.44
2022-11-06T22:01:34.167Z,87.28
2022-11-06T22:04:02.364Z,88.02
2022-11-06T22:06:31.063Z,87.35
2022-11-06T22:09:00.673Z,87.79
2022-11-06T22:11:30.997Z,87.63
2022-11-06T22:14:02.589Z,88.12
2022-11-06T22:16:32.931Z,88.04
2022-11-06T22:19:01.209Z,88.29
2022-11-06T22:21:30.827Z,88.09
2022-11-06T22:23:58.852Z,88.01
2022-11-06T22:26:29.124Z,87.88
2022-11-06T22:28:58.727Z,87.82
2022-11-06T22:31:29.061Z,88.13
2022-11-06T22:33:57.664Z,87.97
2022-11-06T22:36:26.514Z,87.40
2022-11-06T22:38:55.059Z,87.73
2022-11-06T22:41:25.132Z,87.61
2022-11-06T22:43:53.682Z,87.95
2022-11-06T22:46:24.293Z,87.60
2022-11-06T22:48:54.457Z,87.03
2022-11-06T22:51:23.918Z,87.70
2022-11-06T22:53:52.363Z,87.61
2022-11-06T22:56:21.393Z,87.71
2022-11-06T22:58:53.467Z,87.74
2022-11-06T23:01:22.780Z,87.56
2022-11-06T23:03:50.939Z,87.34
2022-11-06T23:06:20.177Z,87.71
2022-11-06T23:08:47.892Z,87.17
2022-11-06T23:11:17.249Z,87.30
2022-11-06T23:13:45.763Z,87.65
2022-11-06T23:16:18.086Z,87.53
2022-11-06T23:18:46.245Z,87.46
2022-11-06T23:21:15.306Z,87.92
2022-11-06T23:23:45.585Z,88.15
2022-11-06T23:26:14.596Z,87.80
2022-11-06T23:28:43.669Z,88.67
2022-11-06T23:31:13.689Z,88.16
2022-11-06T23:33:41.855Z,88.66
2022-11-06T23:36:11.830Z,88.35
2022-11-06T23:38:39.862Z,88.47
2022-11-06T23:41:24.743Z,88.89
2022-11-06T23:43:52.657Z,88.76
2022-11-06T23:46:19.651Z,88.61
2022-11-06T23:48:47.443Z,88.84
2022-11-06T23:51:15.678Z,89.35
2022-11-06T23:53:43.880Z,89.34
2022-11-06T23:56:14.457Z,89.66
2022-11-06T23:58:43.200Z,89.92
